Time,TemperatureF,DewpointF,PressureIn,WindDirection,WindDirectionDegrees,WindSpeedMPH,WindSpeedGustMPH,Humidity,HourlyPrecipIn,Conditions,Clouds,dailyrainin,SoftwareType,DateUTC
2013-11-18 00:01:00,58.9,57.5,29.66,SSE,154,15.0,19.0,95,0.03,,OVC011,0.00,VWS V14.01,2013-11-18 05:01:00,
2013-11-18 00:02:00,59.0,57.6,29.66,SSE,165,12.0,27.0,95,0.03,,OVC011,0.00,VWS V14.01,2013-11-18 05:02:00,
2013-11-18 00:03:00,59.0,57.6,29.66,SE,143,12.0,27.0,95,0.03,,OVC011,0.00,VWS V14.01,2013-11-18 05:03:00,
2013-11-18 00:06:00,59.1,57.7,29.65,SSE,149,14.0,25.0,95,0.02,,OVC011,0.00,VWS V14.01,2013-11-18 05:06:00,
2013-11-18 00:11:00,59.3,57.9,29.65,SSE,150,11.0,21.0,95,0.01,,OVC011,0.00,VWS V14.01,2013-11-18 05:11:00,
2013-11-18 00:16:00,59.4,58.0,29.65,South,180,7.0,14.0,95,0.00,,OVC011,0.00,VWS V14.01,2013-11-18 05:16:00,
2013-11-18 00:21:00,59.6,58.2,29.65,SSW,196,8.0,16.0,95,0.00,,OVC011,0.00,VWS V14.01,2013-11-18 05:21:00,
2013-11-18 00:26:00,59.7,58.0,29.65,South,174,17.0,23.0,94,0.00,,OVC011,0.00,VWS V14.01,2013-11-18 05:26:00,
2013-11-18 00:31:00,59.8,58.1,29.65,SSE,155,8.0,14.0,94,0.01,,OVC011,0.01,VWS V14.01,2013-11-18 05:31:00,
2013-11-18 00:36:00,59.8,58.1,29.65,WSW,241,3.0,15.0,94,0.02,,OVC011,0.02,VWS V14.01,2013-11-18 05:36:00,
2013-11-18 00:42:00,59.7,58.0,29.65,South,190,8.0,12.0,94,0.06,,OVC011,0.06,VWS V14.01,2013-11-18 05:42:00,
2013-11-18 00:47:00,59.6,58.2,29.64,SE,142,10.0,15.0,95,0.06,,OVC011,0.06,VWS V14.01,2013-11-18 05:47:00,
2013-11-18 00:52:00,59.6,58.2,29.63,SW,224,3.0,20.0,95,0.07,,OVC011,0.07,VWS V14.01,2013-11-18 05:52:00,
2013-11-18 00:57:00,59.6,58.2,29.63,SSE,149,8.0,14.0,95,0.07,,OVC011,0.07,VWS V14.01,2013-11-18 05:57:00,
2013-11-18 01:02:00,59.7,58.3,29.63,SSW,200,9.0,17.0,95,0.07,,OVC011,0.07,VWS V14.01,2013-11-18 06:02:00,
2013-11-18 01:07:00,59.7,58.0,29.62,SE,145,8.0,13.0,94,0.07,,-RA,0.07,VWS V14.01,2013-11-18 06:07:00,
2013-11-18 01:12:00,59.9,58.2,29.62,SW,229,6.0,18.0,94,0.07,,-RA,0.07,VWS V14.01,2013-11-18 06:12:00,
2013-11-18 01:17:00,60.0,58.3,29.62,South,181,6.0,12.0,94,0.07,,-RA,0.07,VWS V14.01,2013-11-18 06:17:00,
2013-11-18 01:22:00,60.1,58.4,29.62,SSE,167,14.0,15.0,94,0.07,,-RA,0.07,VWS V14.01,2013-11-18 06:22:00,
2013-11-18 01:27:00,60.2,58.5,29.62,SW,221,3.0,17.0,94,0.07,,-RA,0.07,VWS V14.01,2013-11-18 06:27:00,
2013-11-18 01:33:00,60.3,58.6,29.61,SSW,203,6.0,16.0,94,0.06,,-RA,0.07,VWS V14.01,2013-11-18 06:33:00,
2013-11-18 01:38:00,60.5,58.8,29.61,WSW,239,11.0,13.0,94,0.06,,-RA,0.07,VWS V14.01,2013-11-18 06:38:00,
2013-11-18 01:43:00,60.7,59.0,29.61,SW,221,9.0,17.0,94,0.03,,-RA,0.07,VWS V14.01,2013-11-18 06:43:00,
2013-11-18 01:48:00,60.9,59.2,29.61,SSW,200,7.0,15.0,94,0.01,,-RA,0.07,VWS V14.01,2013-11-18 06:48:00,
2013-11-18 01:53:00,60.9,59.2,29.62,South,191,9.0,15.0,94,0.00,,-RA,0.07,VWS V14.01,2013-11-18 06:53:00,
2013-11-18 01:58:00,61.1,59.4,29.62,SW,236,9.0,18.0,94,0.00,,-RA,0.07,VWS V14.01,2013-11-18 06:58:00,
2013-11-18 02:03:00,61.1,59.4,29.62,SW,225,7.0,17.0,94,0.00,,-RA,0.07,VWS V14.01,2013-11-18 07:03:00,
2013-11-18 02:08:00,61.0,59.6,29.64,West,274,8.0,16.0,95,0.02,,-RA,0.09,VWS V14.01,2013-11-18 07:08:00,
2013-11-18 02:13:00,57.4,53.2,29.68,NW,307,7.0,19.0,86,0.09,,-RA,0.16,VWS V14.01,2013-11-18 07:13:00,
2013-11-18 02:18:00,53.7,51.1,29.67,NW,308,7.0,17.0,91,0.17,,-RA,0.24,VWS V14.01,2013-11-18 07:18:00,
2013-11-18 02:24:00,52.4,50.7,29.67,West,269,1.0,13.0,94,0.17,,-RA,0.24,VWS V14.01,2013-11-18 07:24:00,
2013-11-18 02:29:00,52.1,51.0,29.66,West,273,2.0,8.0,96,0.17,,-RA,0.24,VWS V14.01,2013-11-18 07:29:00,
2013-11-18 02:34:00,52.1,51.0,29.66,West,261,4.0,6.0,96,0.17,,-RA,0.24,VWS V14.01,2013-11-18 07:34:00,
2013-11-18 02:39:00,52.2,51.4,29.65,West,264,0.0,3.0,97,0.17,,-RA,0.24,VWS V14.01,2013-11-18 07:39:00,
2013-11-18 02:44:00,52.4,51.6,29.65,WNW,289,2.0,3.0,97,0.17,,-RA,0.24,VWS V14.01,2013-11-18 07:44:00,
2013-11-18 02:49:00,52.5,51.7,29.64,West,261,0.0,1.0,97,0.17,,-RA,0.24,VWS V14.01,2013-11-18 07:49:00,
2013-11-18 02:54:00,52.5,51.4,29.64,SW,233,0.0,2.0,96,0.17,,-RA,0.24,VWS V14.01,2013-11-18 07:54:00,
2013-11-18 02:59:00,52.7,51.3,29.64,West,280,0.0,2.0,95,0.17,,-RA,0.24,VWS V14.01,2013-11-18 07:59:00,
2013-11-18 03:04:00,53.2,50.7,29.63,West,264,0.0,6.0,91,0.17,,-RA,0.24,VWS V14.01,2013-11-18 08:04:00,
2013-11-18 03:09:00,53.6,50.7,29.64,WSW,255,4.0,12.0,90,0.16,,-RA,0.24,VWS V14.01,2013-11-18 08:09:00,
2013-11-18 03:15:00,54.0,50.8,29.63,WSW,241,3.0,10.0,89,0.14,,-RA,0.24,VWS V14.01,2013-11-18 08:15:00,
2013-11-18 03:20:00,54.3,50.5,29.64,West,271,0.0,8.0,87,0.05,,-RA,0.24,VWS V14.01,2013-11-18 08:20:00,
2013-11-18 03:25:00,54.3,50.5,29.64,WSW,257,2.0,6.0,87,0.00,,-RA,0.24,VWS V14.01,2013-11-18 08:25:00,
2013-11-18 03:30:00,54.6,50.5,29.65,WSW,255,2.0,11.0,86,0.00,,-RA,0.24,VWS V14.01,2013-11-18 08:30:00,
2013-11-18 03:35:00,54.9,50.2,29.64,WSW,240,3.0,14.0,84,0.00,,-RA,0.24,VWS V14.01,2013-11-18 08:35:00,
2013-11-18 03:40:00,55.1,50.0,29.63,WSW,239,2.0,10.0,83,0.00,,-RA,0.24,VWS V14.01,2013-11-18 08:40:00,
2013-11-18 03:45:00,55.3,49.2,29.64,WSW,253,4.0,13.0,80,0.00,,-RA,0.24,VWS V14.01,2013-11-18 08:45:00,
2013-11-18 03:50:00,55.4,49.0,29.64,West,264,7.0,11.0,79,0.00,,-RA,0.24,VWS V14.01,2013-11-18 08:50:00,
2013-11-18 03:55:00,56.6,47.7,29.64,SW,214,6.0,14.0,72,0.00,,-RA,0.24,VWS V14.01,2013-11-18 08:55:00,
2013-11-18 04:00:00,57.0,47.3,29.65,WSW,242,6.0,11.0,70,0.00,,-RA,0.24,VWS V14.01,2013-11-18 09:00:00,
2013-11-18 04:04:00,57.1,48.5,29.64,West,262,0.0,8.0,73,0.00,,-RA,0.24,VWS V14.01,2013-11-18 09:04:00,
2013-11-18 04:10:00,56.8,47.9,29.65,West,273,8.0,10.0,72,0.00,,OVC085,0.24,VWS V14.01,2013-11-18 09:10:00,
2013-11-18 04:14:00,57.0,48.1,29.65,SW,233,3.0,11.0,72,0.00,,OVC085,0.24,VWS V14.01,2013-11-18 09:14:00,
2013-11-18 04:20:00,56.9,47.6,29.64,West,266,4.0,8.0,71,0.00,,OVC085,0.24,VWS V14.01,2013-11-18 09:20:00,
2013-11-18 04:25:00,57.2,47.1,29.65,West,273,1.0,19.0,69,0.00,,OVC085,0.24,VWS V14.01,2013-11-18 09:25:00,
2013-11-18 04:30:00,57.2,46.4,29.65,WNW,285,2.0,11.0,67,0.00,,OVC085,0.24,VWS V14.01,2013-11-18 09:30:00,
2013-11-18 04:35:00,57.2,46.4,29.64,WSW,252,2.0,7.0,67,0.00,,OVC085,0.24,VWS V14.01,2013-11-18 09:35:00,
2013-11-18 04:40:00,57.4,45.8,29.66,SW,231,12.0,16.0,65,0.00,,OVC085,0.24,VWS V14.01,2013-11-18 09:40:00,
2013-11-18 04:45:00,57.4,47.3,29.65,WSW,253,3.0,12.0,69,0.00,,OVC085,0.24,VWS V14.01,2013-11-18 09:45:00,
2013-11-18 04:50:00,57.1,47.8,29.65,West,261,0.0,12.0,71,0.00,,OVC085,0.24,VWS V14.01,2013-11-18 09:50:00,
2013-11-18 04:55:00,56.8,48.2,29.64,West,273,1.0,6.0,73,0.00,,OVC085,0.24,VWS V14.01,2013-11-18 09:55:00,
2013-11-18 05:00:00,56.7,48.5,29.66,WSW,253,7.0,8.0,74,0.00,,OVC085,0.24,VWS V14.01,2013-11-18 10:00:00,
2013-11-18 05:05:00,56.5,48.7,29.66,SW,233,1.0,8.0,75,0.00,,OVC085,0.24,VWS V14.01,2013-11-18 10:05:00,
2013-11-18 05:10:00,56.1,48.7,29.65,West,273,2.0,5.0,76,0.00,,-RA,0.24,VWS V14.01,2013-11-18 10:10:00,
2013-11-18 05:15:00,56.0,47.8,29.66,West,281,3.0,5.0,74,0.00,,-RA,0.24,VWS V14.01,2013-11-18 10:15:00,
2013-11-18 05:20:00,56.4,47.1,29.67,West,262,5.0,12.0,71,0.00,,-RA,0.24,VWS V14.01,2013-11-18 10:20:00,
2013-11-18 05:24:00,56.6,47.3,29.66,WNW,282,3.0,9.0,71,0.00,,-RA,0.24,VWS V14.01,2013-11-18 10:24:00,
2013-11-18 05:30:00,56.6,46.6,29.65,West,281,0.0,7.0,69,0.00,,-RA,0.24,VWS V14.01,2013-11-18 10:30:00,
2013-11-18 05:35:00,56.4,46.4,29.65,WSW,248,7.0,8.0,69,0.00,,-RA,0.24,VWS V14.01,2013-11-18 10:35:00,
2013-11-18 05:40:00,56.1,46.8,29.66,WNW,285,1.0,7.0,71,0.00,,-RA,0.24,VWS V14.01,2013-11-18 10:40:00,
2013-11-18 05:45:00,55.9,46.3,29.65,West,273,2.0,7.0,70,0.00,,-RA,0.24,VWS V14.01,2013-11-18 10:45:00,
2013-11-18 05:50:00,56.4,45.2,29.65,SW,221,4.0,12.0,66,0.00,,-RA,0.24,VWS V14.01,2013-11-18 10:50:00,
2013-11-18 05:55:00,56.6,45.0,29.65,WSW,255,3.0,10.0,65,0.00,,-RA,0.24,VWS V14.01,2013-11-18 10:55:00,
2013-11-18 05:59:00,56.6,45.0,29.65,North,351,1.0,14.0,65,0.00,,-RA,0.24,VWS V14.01,2013-11-18 10:59:00,
2013-11-18 06:05:00,56.5,45.3,29.65,West,260,0.0,11.0,66,0.00,,-RA,0.24,VWS V14.01,2013-11-18 11:05:00,
2013-11-18 06:10:00,56.4,44.4,29.66,WNW,295,10.0,16.0,64,0.00,,FEW110,0.24,VWS V14.01,2013-11-18 11:10:00,
2013-11-18 06:15:00,56.5,44.1,29.66,West,267,4.0,10.0,63,0.00,,FEW110,0.24,VWS V14.01,2013-11-18 11:15:00,
2013-11-18 06:20:00,56.7,43.8,29.66,West,264,2.0,16.0,62,0.00,,FEW110,0.24,VWS V14.01,2013-11-18 11:20:00,
2013-11-18 06:25:00,56.2,43.8,29.66,SW,233,6.0,11.0,63,0.00,,FEW110,0.24,VWS V14.01,2013-11-18 11:25:00,
2013-11-18 06:30:00,56.2,44.2,29.66,WSW,252,2.0,10.0,64,0.00,,FEW110,0.24,VWS V14.01,2013-11-18 11:30:00,
2013-11-18 06:34:00,55.8,44.2,29.66,WSW,256,0.0,9.0,65,0.00,,FEW110,0.24,VWS V14.01,2013-11-18 11:34:00,
2013-11-18 06:40:00,55.7,43.7,29.66,NW,316,3.0,12.0,64,0.00,,FEW110,0.24,VWS V14.01,2013-11-18 11:40:00,
2013-11-18 06:45:00,55.7,43.7,29.66,WSW,242,1.0,9.0,64,0.00,,FEW110,0.24,VWS V14.01,2013-11-18 11:45:00,
2013-11-18 06:50:00,55.4,43.8,29.67,West,273,0.0,8.0,65,0.00,,FEW110,0.24,VWS V14.01,2013-11-18 11:50:00,
2013-11-18 06:55:00,55.0,43.5,29.67,WNW,285,3.0,5.0,65,0.00,,FEW110,0.24,VWS V14.01,2013-11-18 11:55:00,
2013-11-18 07:00:00,54.8,43.3,29.67,West,269,4.0,4.0,65,0.00,,FEW110,0.24,VWS V14.01,2013-11-18 12:00:00,
2013-11-18 07:05:00,55.0,42.7,29.67,West,278,3.0,5.0,63,0.00,,FEW110,0.24,VWS V14.01,2013-11-18 12:05:00,
2013-11-18 07:10:00,54.8,42.5,29.67,WNW,290,1.0,2.0,63,0.00,,CLR,0.24,VWS V14.01,2013-11-18 12:10:00,
2013-11-18 07:15:00,54.7,42.0,29.67,WNW,287,3.0,8.0,62,0.00,,CLR,0.24,VWS V14.01,2013-11-18 12:15:00,
2013-11-18 07:20:00,54.6,41.9,29.67,NW,314,1.0,3.0,62,0.00,,CLR,0.24,VWS V14.01,2013-11-18 12:20:00,
2013-11-18 07:25:00,54.3,42.0,29.67,WNW,293,3.0,8.0,63,0.00,,CLR,0.24,VWS V14.01,2013-11-18 12:25:00,
2013-11-18 07:30:00,54.1,42.2,29.67,West,276,3.0,3.0,64,0.00,,CLR,0.24,VWS V14.01,2013-11-18 12:30:00,
2013-11-18 07:35:00,54.3,42.0,29.67,WSW,249,4.0,4.0,63,0.00,,CLR,0.24,VWS V14.01,2013-11-18 12:35:00,
2013-11-18 07:40:00,54.3,42.4,29.67,West,259,0.0,4.0,64,0.00,,CLR,0.24,VWS V14.01,2013-11-18 12:40:00,
2013-11-18 07:45:00,54.5,42.2,29.67,WNW,296,4.0,5.0,63,0.00,,CLR,0.24,VWS V14.01,2013-11-18 12:45:00,
2013-11-18 07:50:00,54.6,42.7,29.68,WNW,301,7.0,7.0,64,0.00,,CLR,0.24,VWS V14.01,2013-11-18 12:50:00,
2013-11-18 07:56:00,54.8,42.5,29.68,WNW,291,0.0,2.0,63,0.00,,CLR,0.24,VWS V14.01,2013-11-18 12:56:00,
2013-11-18 08:01:00,55.0,42.7,29.68,WNW,291,7.0,7.0,63,0.00,,CLR,0.24,VWS V14.01,2013-11-18 13:01:00,
2013-11-18 08:06:00,55.1,42.3,29.69,WSW,250,6.0,6.0,62,0.00,,CLR,0.24,VWS V14.01,2013-11-18 13:06:00,
2013-11-18 08:11:00,55.3,42.1,29.69,WSW,249,4.0,6.0,61,0.00,,CLR,0.24,VWS V14.01,2013-11-18 13:11:00,
2013-11-18 08:16:00,55.6,42.4,29.69,WNW,284,0.0,2.0,61,0.00,,CLR,0.24,VWS V14.01,2013-11-18 13:16:00,
2013-11-18 08:21:00,56.0,41.5,29.69,WNW,283,1.0,7.0,58,0.00,,CLR,0.24,VWS V14.01,2013-11-18 13:21:00,
2013-11-18 08:26:00,56.3,41.7,29.69,NW,309,1.0,7.0,58,0.00,,CLR,0.24,VWS V14.01,2013-11-18 13:26:00,
2013-11-18 08:31:00,56.4,41.4,29.69,WNW,286,5.0,8.0,57,0.00,,CLR,0.24,VWS V14.01,2013-11-18 13:31:00,
2013-11-18 08:36:00,56.5,41.9,29.70,West,275,0.0,7.0,58,0.00,,CLR,0.24,VWS V14.01,2013-11-18 13:36:00,
2013-11-18 08:41:00,56.7,41.7,29.70,WNW,302,0.0,6.0,57,0.00,,CLR,0.24,VWS V14.01,2013-11-18 13:41:00,
2013-11-18 08:46:00,56.9,41.8,29.70,West,267,4.0,8.0,57,0.00,,CLR,0.24,VWS V14.01,2013-11-18 13:46:00,
2013-11-18 08:51:00,57.2,41.7,29.71,SW,222,3.0,5.0,56,0.00,,CLR,0.24,VWS V14.01,2013-11-18 13:51:00,
2013-11-18 08:56:00,57.3,41.8,29.70,WNW,288,5.0,9.0,56,0.00,,CLR,0.24,VWS V14.01,2013-11-18 13:56:00,
2013-11-18 09:02:00,57.4,40.9,29.70,West,266,8.0,13.0,54,0.00,,CLR,0.24,VWS V14.01,2013-11-18 14:02:00,
2013-11-18 09:07:00,57.4,40.4,29.69,WNW,293,4.0,12.0,53,0.00,,CLR,0.24,VWS V14.01,2013-11-18 14:07:00,
2013-11-18 09:12:00,57.4,40.4,29.70,West,270,3.0,13.0,53,0.00,,CLR,0.24,VWS V14.01,2013-11-18 14:12:00,
2013-11-18 09:17:00,57.5,41.0,29.70,West,262,1.0,9.0,54,0.00,,CLR,0.24,VWS V14.01,2013-11-18 14:17:00,
2013-11-18 09:22:00,57.7,41.7,29.71,West,270,2.0,12.0,55,0.00,,CLR,0.24,VWS V14.01,2013-11-18 14:22:00,
2013-11-18 09:27:00,57.8,41.3,29.71,WNW,285,6.0,12.0,54,0.00,,CLR,0.24,VWS V14.01,2013-11-18 14:27:00,
2013-11-18 09:32:00,57.8,40.8,29.70,WNW,291,1.0,10.0,53,0.00,,CLR,0.24,VWS V14.01,2013-11-18 14:32:00,
2013-11-18 09:37:00,57.8,40.8,29.70,WNW,294,6.0,11.0,53,0.00,,CLR,0.24,VWS V14.01,2013-11-18 14:37:00,
2013-11-18 09:42:00,57.8,41.3,29.70,West,281,5.0,11.0,54,0.00,,CLR,0.24,VWS V14.01,2013-11-18 14:42:00,
2013-11-18 09:47:00,57.8,40.3,29.70,WSW,252,6.0,13.0,52,0.00,,CLR,0.24,VWS V14.01,2013-11-18 14:47:00,
2013-11-18 09:52:00,58.0,41.5,29.70,WNW,295,4.0,14.0,54,0.00,,CLR,0.24,VWS V14.01,2013-11-18 14:52:00,
2013-11-18 09:57:00,58.0,40.0,29.70,West,268,8.0,16.0,51,0.00,,CLR,0.24,VWS V14.01,2013-11-18 14:57:00,
2013-11-18 10:02:00,58.0,40.0,29.70,WSW,248,5.0,13.0,51,0.00,,CLR,0.24,VWS V14.01,2013-11-18 15:02:00,
2013-11-18 10:08:00,58.2,40.2,29.70,West,270,9.0,13.0,51,0.00,,CLR,0.24,VWS V14.01,2013-11-18 15:08:00,
2013-11-18 10:13:00,58.2,39.7,29.70,WSW,248,9.0,13.0,50,0.00,,CLR,0.24,VWS V14.01,2013-11-18 15:13:00,
2013-11-18 10:18:00,58.3,40.3,29.70,WNW,302,2.0,12.0,51,0.00,,CLR,0.24,VWS V14.01,2013-11-18 15:18:00,
2013-11-18 10:23:00,58.5,38.9,29.70,WNW,283,6.0,14.0,48,0.00,,CLR,0.24,VWS V14.01,2013-11-18 15:23:00,
2013-11-18 10:28:00,58.6,39.0,29.71,South,184,2.0,18.0,48,0.00,,CLR,0.24,VWS V14.01,2013-11-18 15:28:00,
2013-11-18 10:33:00,58.8,39.7,29.71,WSW,252,11.0,14.0,49,0.00,,CLR,0.24,VWS V14.01,2013-11-18 15:33:00,
2013-11-18 10:38:00,58.9,39.3,29.71,WSW,256,1.0,14.0,48,0.00,,CLR,0.24,VWS V14.01,2013-11-18 15:38:00,
2013-11-18 10:43:00,58.9,39.8,29.71,WSW,257,1.0,15.0,49,0.00,,CLR,0.24,VWS V14.01,2013-11-18 15:43:00,
2013-11-18 10:48:00,59.3,40.7,29.70,WSW,255,1.0,7.0,50,0.00,,CLR,0.24,VWS V14.01,2013-11-18 15:48:00,
2013-11-18 10:53:00,59.5,39.8,29.70,West,281,8.0,16.0,48,0.00,,CLR,0.24,VWS V14.01,2013-11-18 15:53:00,
2013-11-18 10:54:00,59.5,38.7,29.70,WNW,293,5.0,16.0,46,0.00,,CLR,0.24,VWS V14.01,2013-11-18 15:54:00,
2013-11-18 10:59:00,59.4,39.7,29.70,WSW,242,6.0,16.0,48,0.00,,CLR,0.24,VWS V14.01,2013-11-18 15:59:00,
2013-11-18 11:04:00,59.5,38.7,29.70,West,278,5.0,12.0,46,0.00,,CLR,0.24,VWS V14.01,2013-11-18 16:04:00,
2013-11-18 11:09:00,59.4,38.1,29.70,NW,307,2.0,17.0,45,0.00,,CLR,0.24,VWS V14.01,2013-11-18 16:09:00,
2013-11-18 11:14:00,59.3,39.1,29.70,West,259,7.0,16.0,47,0.00,,CLR,0.24,VWS V14.01,2013-11-18 16:14:00,
2013-11-18 11:19:00,59.5,39.3,29.70,West,260,10.0,14.0,47,0.00,,CLR,0.24,VWS V14.01,2013-11-18 16:19:00,
2013-11-18 11:24:00,59.2,37.9,29.70,NW,314,2.0,21.0,45,0.00,,CLR,0.24,VWS V14.01,2013-11-18 16:24:00,
2013-11-18 11:30:00,59.2,39.0,29.70,NW,312,4.0,16.0,47,0.00,,CLR,0.24,VWS V14.01,2013-11-18 16:30:00,
2013-11-18 11:35:00,59.5,39.8,29.70,NW,310,7.0,15.0,48,0.00,,CLR,0.24,VWS V14.01,2013-11-18 16:35:00,
2013-11-18 11:39:00,59.3,38.0,29.69,WNW,295,4.0,17.0,45,0.00,,CLR,0.24,VWS V14.01,2013-11-18 16:39:00,
2013-11-18 11:45:00,59.5,39.3,29.69,West,281,4.0,16.0,47,0.00,,CLR,0.24,VWS V14.01,2013-11-18 16:45:00,
2013-11-18 11:49:00,59.4,37.5,29.69,West,259,7.0,18.0,44,0.00,,CLR,0.24,VWS V14.01,2013-11-18 16:49:00,
2013-11-18 11:55:00,59.2,37.3,29.69,WSW,256,10.0,18.0,44,0.00,,CLR,0.24,VWS V14.01,2013-11-18 16:55:00,
2013-11-18 12:00:00,59.5,38.2,29.69,WNW,293,5.0,18.0,45,0.00,,CLR,0.24,VWS V14.01,2013-11-18 17:00:00,
2013-11-18 12:05:00,59.6,37.7,29.69,WNW,290,8.0,14.0,44,0.00,,CLR,0.24,VWS V14.01,2013-11-18 17:05:00,
2013-11-18 12:10:00,59.5,38.2,29.69,NW,322,10.0,18.0,45,0.00,,CLR,0.24,VWS V14.01,2013-11-18 17:10:00,
2013-11-18 12:15:00,59.7,38.3,29.68,NE,41,7.0,16.0,45,0.00,,CLR,0.24,VWS V14.01,2013-11-18 17:15:00,
2013-11-18 12:20:00,59.9,38.0,29.68,West,277,3.0,11.0,44,0.00,,CLR,0.24,VWS V14.01,2013-11-18 17:20:00,
2013-11-18 12:24:00,59.7,37.8,29.68,NW,314,7.0,15.0,44,0.00,,CLR,0.24,VWS V14.01,2013-11-18 17:24:00,
2013-11-18 12:30:00,59.6,37.1,29.68,NW,312,6.0,18.0,43,0.00,,CLR,0.24,VWS V14.01,2013-11-18 17:30:00,
2013-11-18 12:35:00,59.8,37.9,29.68,West,268,8.0,14.0,44,0.00,,CLR,0.24,VWS V14.01,2013-11-18 17:35:00,
2013-11-18 12:40:00,59.9,36.2,29.68,WNW,291,7.0,17.0,41,0.00,,CLR,0.24,VWS V14.01,2013-11-18 17:40:00,
2013-11-18 12:45:00,59.9,36.2,29.68,NW,311,11.0,14.0,41,0.00,,CLR,0.24,VWS V14.01,2013-11-18 17:45:00,
2013-11-18 12:50:00,60.2,37.6,29.68,SW,227,5.0,15.0,43,0.00,,CLR,0.24,VWS V14.01,2013-11-18 17:50:00,
2013-11-18 12:55:00,60.2,36.4,29.68,West,261,13.0,16.0,41,0.00,,CLR,0.24,VWS V14.01,2013-11-18 17:55:00,
2013-11-18 12:59:00,60.3,35.9,29.68,WNW,288,4.0,13.0,40,0.00,,CLR,0.24,VWS V14.01,2013-11-18 17:59:00,
2013-11-18 13:05:00,60.4,36.6,29.68,WNW,293,10.0,13.0,41,0.00,,CLR,0.24,VWS V14.01,2013-11-18 18:05:00,
2013-11-18 13:10:00,60.4,34.7,29.67,West,265,10.0,14.0,38,0.00,,CLR,0.24,VWS V14.01,2013-11-18 18:10:00,
2013-11-18 13:15:00,60.4,35.3,29.67,WNW,290,2.0,14.0,39,0.00,,CLR,0.24,VWS V14.01,2013-11-18 18:15:00,
2013-11-18 13:20:00,60.7,35.0,29.67,West,266,8.0,14.0,38,0.00,,CLR,0.24,VWS V14.01,2013-11-18 18:20:00,
2013-11-18 13:25:00,60.8,33.7,29.67,NW,307,6.0,16.0,36,0.00,,CLR,0.24,VWS V14.01,2013-11-18 18:25:00,
2013-11-18 13:30:00,60.9,34.5,29.66,NNW,338,7.0,14.0,37,0.00,,CLR,0.24,VWS V14.01,2013-11-18 18:30:00,
2013-11-18 13:34:00,60.9,35.1,29.66,WNW,284,4.0,13.0,38,0.00,,CLR,0.24,VWS V14.01,2013-11-18 18:34:00,
2013-11-18 13:40:00,60.7,35.0,29.66,WNW,289,5.0,13.0,38,0.00,,CLR,0.24,VWS V14.01,2013-11-18 18:40:00,
2013-11-18 13:45:00,60.9,36.4,29.66,WSW,245,2.0,3.0,40,0.00,,CLR,0.24,VWS V14.01,2013-11-18 18:45:00,
2013-11-18 13:50:00,61.2,36.1,29.66,WNW,289,2.0,10.0,39,0.00,,CLR,0.24,VWS V14.01,2013-11-18 18:50:00,
2013-11-18 13:55:00,61.4,35.6,29.66,West,263,4.0,12.0,38,0.00,,CLR,0.24,VWS V14.01,2013-11-18 18:55:00,
2013-11-18 14:00:00,61.4,37.5,29.66,West,259,7.0,11.0,41,0.00,,CLR,0.24,VWS V14.01,2013-11-18 19:00:00,
2013-11-18 14:05:00,61.5,36.3,29.66,WSW,253,3.0,10.0,39,0.00,,CLR,0.24,VWS V14.01,2013-11-18 19:05:00,
2013-11-18 14:10:00,61.6,36.4,29.66,West,270,4.0,13.0,39,0.00,,CLR,0.24,VWS V14.01,2013-11-18 19:10:00,
2013-11-18 14:15:00,61.5,37.6,29.66,West,281,7.0,11.0,41,0.00,,CLR,0.24,VWS V14.01,2013-11-18 19:15:00,
2013-11-18 14:20:00,61.7,35.9,29.66,West,267,8.0,11.0,38,0.00,,CLR,0.24,VWS V14.01,2013-11-18 19:20:00,
2013-11-18 14:25:00,61.9,36.7,29.66,WSW,243,0.0,11.0,39,0.00,,CLR,0.24,VWS V14.01,2013-11-18 19:25:00,
2013-11-18 14:30:00,61.8,36.0,29.66,WSW,258,4.0,12.0,38,0.00,,CLR,0.24,VWS V14.01,2013-11-18 19:30:00,
2013-11-18 14:35:00,61.6,35.1,29.66,West,274,7.0,17.0,37,0.00,,CLR,0.24,VWS V14.01,2013-11-18 19:35:00,
2013-11-18 14:40:00,61.4,34.2,29.66,WNW,292,9.0,21.0,36,0.00,,CLR,0.24,VWS V14.01,2013-11-18 19:40:00,
2013-11-18 14:45:00,61.3,35.5,29.66,SW,225,9.0,13.0,38,0.00,,CLR,0.24,VWS V14.01,2013-11-18 19:45:00,
2013-11-18 14:50:00,61.3,34.8,29.66,WNW,283,8.0,11.0,37,0.00,,CLR,0.24,VWS V14.01,2013-11-18 19:50:00,
2013-11-18 14:55:00,61.2,32.6,29.67,West,278,4.0,17.0,34,0.00,,CLR,0.24,VWS V14.01,2013-11-18 19:55:00,
2013-11-18 15:00:00,61.0,33.2,29.66,West,271,4.0,15.0,35,0.00,,CLR,0.24,VWS V14.01,2013-11-18 20:00:00,
2013-11-18 15:04:00,60.8,33.7,29.66,WSW,256,6.0,15.0,36,0.00,,CLR,0.24,VWS V14.01,2013-11-18 20:04:00,
2013-11-18 15:10:00,60.7,33.6,29.66,WNW,282,13.0,13.0,36,0.00,,CLR,0.24,VWS V14.01,2013-11-18 20:10:00,
2013-11-18 15:14:00,60.7,32.9,29.67,West,270,3.0,15.0,35,0.00,,CLR,0.24,VWS V14.01,2013-11-18 20:14:00,
2013-11-18 15:20:00,60.6,32.8,29.67,West,262,9.0,22.0,35,0.00,,CLR,0.24,VWS V14.01,2013-11-18 20:20:00,
2013-11-18 15:25:00,60.5,33.4,29.67,WSW,248,4.0,20.0,36,0.00,,CLR,0.24,VWS V14.01,2013-11-18 20:25:00,
2013-11-18 15:32:00,60.4,34.0,29.67,West,266,6.0,9.0,37,0.00,,CLR,0.24,VWS V14.01,2013-11-18 20:32:00,
2013-11-18 15:37:00,60.3,33.9,29.67,WNW,286,8.0,15.0,37,0.00,,CLR,0.24,VWS V14.01,2013-11-18 20:37:00,
2013-11-18 15:42:00,60.2,33.2,29.67,West,260,7.0,15.0,36,0.00,,CLR,0.24,VWS V14.01,2013-11-18 20:42:00,
2013-11-18 15:47:00,60.2,33.8,29.67,WSW,238,1.0,6.0,37,0.00,,CLR,0.24,VWS V14.01,2013-11-18 20:47:00,
2013-11-18 15:52:00,60.1,33.8,29.67,West,280,3.0,11.0,37,0.00,,CLR,0.24,VWS V14.01,2013-11-18 20:52:00,
2013-11-18 15:57:00,59.9,34.2,29.67,WNW,289,2.0,9.0,38,0.00,,CLR,0.24,VWS V14.01,2013-11-18 20:57:00,
2013-11-18 16:02:00,59.7,34.7,29.67,West,266,0.0,7.0,39,0.00,,CLR,0.24,VWS V14.01,2013-11-18 21:02:00,
2013-11-18 16:07:00,59.6,34.6,29.67,West,280,3.0,10.0,39,0.00,,CLR,0.24,VWS V14.01,2013-11-18 21:07:00,
2013-11-18 16:13:00,59.3,34.4,29.67,WNW,289,1.0,10.0,39,0.00,,CLR,0.24,VWS V14.01,2013-11-18 21:13:00,
2013-11-18 16:18:00,59.1,32.9,29.67,WNW,290,5.0,18.0,37,0.00,,CLR,0.24,VWS V14.01,2013-11-18 21:18:00,
2013-11-18 16:23:00,58.8,33.3,29.68,North,353,1.0,13.0,38,0.00,,CLR,0.24,VWS V14.01,2013-11-18 21:23:00,
2013-11-18 16:28:00,58.5,33.7,29.68,WSW,257,3.0,10.0,39,0.00,,CLR,0.24,VWS V14.01,2013-11-18 21:28:00,
2013-11-18 16:33:00,58.0,33.2,29.68,WNW,282,1.0,6.0,39,0.00,,CLR,0.24,VWS V14.01,2013-11-18 21:33:00,
2013-11-18 16:38:00,57.6,33.5,29.69,NW,319,0.0,10.0,40,0.00,,CLR,0.24,VWS V14.01,2013-11-18 21:38:00,
2013-11-18 16:43:00,57.1,32.4,29.69,WNW,297,4.0,11.0,39,0.00,,CLR,0.24,VWS V14.01,2013-11-18 21:43:00,
2013-11-18 16:48:00,57.0,31.0,29.69,WSW,255,6.0,15.0,37,0.00,,CLR,0.24,VWS V14.01,2013-11-18 21:48:00,
2013-11-18 16:53:00,56.8,30.8,29.69,NW,309,5.0,12.0,37,0.00,,CLR,0.24,VWS V14.01,2013-11-18 21:53:00,
2013-11-18 16:58:00,56.4,30.5,29.69,West,269,3.0,9.0,37,0.00,,CLR,0.24,VWS V14.01,2013-11-18 21:58:00,
2013-11-18 17:03:00,56.0,30.8,29.70,NW,305,7.0,9.0,38,0.00,,CLR,0.24,VWS V14.01,2013-11-18 22:03:00,
2013-11-18 17:08:00,55.6,31.1,29.70,NW,307,6.0,11.0,39,0.00,,CLR,0.24,VWS V14.01,2013-11-18 22:08:00,
2013-11-18 17:13:00,55.4,30.9,29.70,WNW,287,1.0,8.0,39,0.00,,CLR,0.24,VWS V14.01,2013-11-18 22:13:00,
2013-11-18 17:19:00,55.0,31.1,29.71,WNW,298,0.0,9.0,40,0.00,,CLR,0.24,VWS V14.01,2013-11-18 22:19:00,
2013-11-18 17:24:00,54.6,31.4,29.71,NW,314,2.0,6.0,41,0.00,,CLR,0.24,VWS V14.01,2013-11-18 22:24:00,
2013-11-18 17:29:00,54.4,30.6,29.72,NNW,335,1.0,6.0,40,0.00,,CLR,0.24,VWS V14.01,2013-11-18 22:29:00,
2013-11-18 17:34:00,54.3,31.1,29.72,WSW,240,0.0,10.0,41,0.00,,CLR,0.24,VWS V14.01,2013-11-18 22:34:00,
2013-11-18 17:39:00,54.1,30.9,29.72,West,260,3.0,7.0,41,0.00,,CLR,0.24,VWS V14.01,2013-11-18 22:39:00,
2013-11-18 17:44:00,53.9,30.8,29.72,WNW,285,0.0,5.0,41,0.00,,CLR,0.24,VWS V14.01,2013-11-18 22:44:00,
2013-11-18 17:49:00,53.7,31.2,29.73,NW,308,0.0,6.0,42,0.00,,CLR,0.24,VWS V14.01,2013-11-18 22:49:00,
2013-11-18 17:54:00,53.4,31.5,29.73,West,274,0.0,5.0,43,0.00,,CLR,0.24,VWS V14.01,2013-11-18 22:54:00,
2013-11-18 17:59:00,53.1,31.2,29.73,WNW,285,1.0,5.0,43,0.00,,CLR,0.24,VWS V14.01,2013-11-18 22:59:00,
2013-11-18 18:04:00,53.3,30.8,29.73,West,281,2.0,10.0,42,0.00,,CLR,0.24,VWS V14.01,2013-11-18 23:04:00,
2013-11-18 18:09:00,53.1,31.2,29.74,NW,311,3.0,5.0,43,0.00,,CLR,0.24,VWS V14.01,2013-11-18 23:09:00,
2013-11-18 18:14:00,52.7,31.4,29.74,NW,304,3.0,5.0,44,0.00,,CLR,0.24,VWS V14.01,2013-11-18 23:14:00,
2013-11-18 18:20:00,52.3,31.0,29.74,NNW,342,4.0,6.0,44,0.00,,CLR,0.24,VWS V14.01,2013-11-18 23:20:00,
2013-11-18 18:24:00,52.2,31.5,29.74,WNW,295,0.0,6.0,45,0.00,,CLR,0.24,VWS V14.01,2013-11-18 23:24:00,
2013-11-18 18:30:00,52.4,31.1,29.74,WNW,300,3.0,9.0,44,0.00,,CLR,0.24,VWS V14.01,2013-11-18 23:30:00,
2013-11-18 18:35:00,52.3,31.0,29.75,WSW,257,0.0,7.0,44,0.00,,CLR,0.24,VWS V14.01,2013-11-18 23:35:00,
2013-11-18 18:40:00,52.1,31.4,29.75,West,271,0.0,6.0,45,0.00,,CLR,0.24,VWS V14.01,2013-11-18 23:40:00,
2013-11-18 18:45:00,51.6,31.5,29.75,West,276,0.0,3.0,46,0.00,,CLR,0.24,VWS V14.01,2013-11-18 23:45:00,
2013-11-18 18:49:00,51.2,31.7,29.75,WNW,283,0.0,2.0,47,0.00,,CLR,0.24,VWS V14.01,2013-11-18 23:49:00,
2013-11-18 18:55:00,51.1,31.6,29.76,NW,312,0.0,0.0,47,0.00,,CLR,0.24,VWS V14.01,2013-11-18 23:55:00,
2013-11-18 19:00:00,51.2,31.7,29.76,NW,305,0.0,2.0,47,0.00,,CLR,0.24,VWS V14.01,2013-11-19 00:00:00,
2013-11-18 19:05:00,51.3,31.2,29.76,West,263,4.0,8.0,46,0.00,,CLR,0.24,VWS V14.01,2013-11-19 00:05:00,
2013-11-18 19:10:00,51.5,31.4,29.76,WNW,298,3.0,5.0,46,0.00,,CLR,0.24,VWS V14.01,2013-11-19 00:10:00,
2013-11-18 19:15:00,51.7,31.6,29.76,West,266,7.0,7.0,46,0.00,,CLR,0.24,VWS V14.01,2013-11-19 00:15:00,
2013-11-18 19:20:00,51.8,31.7,29.76,WSW,249,3.0,7.0,46,0.00,,CLR,0.24,VWS V14.01,2013-11-19 00:20:00,
2013-11-18 19:25:00,52.1,32.0,29.76,WNW,298,3.0,4.0,46,0.00,,CLR,0.24,VWS V14.01,2013-11-19 00:25:00,
2013-11-18 19:30:00,52.0,31.9,29.76,WNW,285,5.0,10.0,46,0.00,,CLR,0.24,VWS V14.01,2013-11-19 00:30:00,
2013-11-18 19:35:00,52.0,31.9,29.77,WNW,300,2.0,6.0,46,0.00,,CLR,0.24,VWS V14.01,2013-11-19 00:35:00,
2013-11-18 19:40:00,51.9,31.8,29.77,WNW,282,1.0,5.0,46,0.00,,CLR,0.24,VWS V14.01,2013-11-19 00:40:00,
2013-11-18 19:46:00,51.7,32.1,29.77,NNW,328,0.0,3.0,47,0.00,,CLR,0.24,VWS V14.01,2013-11-19 00:46:00,
2013-11-18 19:51:00,51.6,31.5,29.77,NW,315,3.0,8.0,46,0.00,,CLR,0.24,VWS V14.01,2013-11-19 00:51:00,
2013-11-18 19:56:00,51.7,31.6,29.78,WNW,289,1.0,13.0,46,0.00,,CLR,0.24,VWS V14.01,2013-11-19 00:56:00,
2013-11-18 20:01:00,51.8,31.7,29.78,West,268,2.0,8.0,46,0.00,,CLR,0.24,VWS V14.01,2013-11-19 01:01:00,
2013-11-18 20:06:00,51.8,31.7,29.78,WNW,288,5.0,17.0,46,0.00,,CLR,0.24,VWS V14.01,2013-11-19 01:06:00,
2013-11-18 20:11:00,52.0,32.4,29.79,WNW,289,3.0,6.0,47,0.00,,CLR,0.24,VWS V14.01,2013-11-19 01:11:00,
2013-11-18 20:16:00,51.9,32.3,29.79,WNW,296,0.0,2.0,47,0.00,,CLR,0.24,VWS V14.01,2013-11-19 01:16:00,
2013-11-18 20:21:00,51.7,32.7,29.79,WNW,286,0.0,1.0,48,0.00,,CLR,0.24,VWS V14.01,2013-11-19 01:21:00,
2013-11-18 20:26:00,51.8,32.2,29.79,WNW,288,5.0,8.0,47,0.00,,CLR,0.24,VWS V14.01,2013-11-19 01:26:00,
2013-11-18 20:31:00,52.0,32.4,29.79,NW,309,6.0,13.0,47,0.00,,CLR,0.24,VWS V14.01,2013-11-19 01:31:00,
2013-11-18 20:36:00,52.0,32.9,29.80,NW,314,6.0,10.0,48,0.00,,CLR,0.24,VWS V14.01,2013-11-19 01:36:00,
2013-11-18 20:42:00,52.0,31.3,29.80,WNW,288,9.0,21.0,45,0.00,,CLR,0.24,VWS V14.01,2013-11-19 01:42:00,
2013-11-18 20:44:00,52.0,30.8,29.80,WNW,290,8.0,23.0,44,0.00,,CLR,0.24,VWS V14.01,2013-11-19 01:44:00,
2013-11-18 20:49:00,51.8,31.1,29.80,WNW,301,5.0,19.0,45,0.00,,CLR,0.24,VWS V14.01,2013-11-19 01:49:00,
2013-11-18 20:54:00,51.2,30.6,29.81,WNW,297,9.0,17.0,45,0.00,,CLR,0.24,VWS V14.01,2013-11-19 01:54:00,
2013-11-18 21:00:00,50.9,30.3,29.81,West,260,10.0,22.0,45,0.00,,CLR,0.24,VWS V14.01,2013-11-19 02:00:00,
2013-11-18 21:05:00,50.5,30.0,29.81,West,270,18.0,19.0,45,0.00,,CLR,0.24,VWS V14.01,2013-11-19 02:05:00,
2013-11-18 21:09:00,50.3,30.3,29.82,NW,316,6.0,22.0,46,0.00,,SCT090,0.24,VWS V14.01,2013-11-19 02:09:00,
2013-11-18 21:15:00,49.8,30.4,29.82,NW,314,7.0,15.0,47,0.00,,SCT090,0.24,VWS V14.01,2013-11-19 02:15:00,
2013-11-18 21:20:00,49.6,29.1,29.82,WNW,294,16.0,25.0,45,0.00,,SCT090,0.24,VWS V14.01,2013-11-19 02:20:00,
2013-11-18 21:25:00,49.5,28.0,29.82,WNW,283,21.0,26.0,43,0.00,,SCT090,0.24,VWS V14.01,2013-11-19 02:25:00,
2013-11-18 21:30:00,49.2,28.2,29.82,NNW,330,11.0,11.0,44,0.00,,SCT090,0.24,VWS V14.01,2013-11-19 02:30:00,
2013-11-18 21:35:00,48.9,28.0,29.83,NW,309,14.0,20.0,44,0.00,,SCT090,0.24,VWS V14.01,2013-11-19 02:35:00,
2013-11-18 21:40:00,48.5,28.7,29.83,WNW,282,6.0,12.0,46,0.00,,SCT090,0.24,VWS V14.01,2013-11-19 02:40:00,
2013-11-18 21:45:00,48.1,28.8,29.83,West,273,5.0,5.0,47,0.00,,SCT090,0.24,VWS V14.01,2013-11-19 02:45:00,
2013-11-18 21:50:00,47.6,28.9,29.83,WNW,287,6.0,7.0,48,0.00,,SCT090,0.24,VWS V14.01,2013-11-19 02:50:00,
2013-11-18 21:55:00,47.6,28.9,29.83,NW,305,6.0,6.0,48,0.00,,SCT090,0.24,VWS V14.01,2013-11-19 02:55:00,
2013-11-18 22:00:00,47.7,29.5,29.83,WNW,289,6.0,15.0,49,0.00,,SCT090,0.24,VWS V14.01,2013-11-19 03:00:00,
2013-11-18 22:05:00,47.6,29.4,29.83,West,278,2.0,7.0,49,0.00,,SCT090,0.24,VWS V14.01,2013-11-19 03:05:00,
2013-11-18 22:10:00,47.4,29.2,29.84,North,10,7.0,18.0,49,0.00,,FEW080,0.24,VWS V14.01,2013-11-19 03:10:00,
2013-11-18 22:15:00,47.2,29.5,29.84,WNW,298,4.0,9.0,50,0.00,,FEW080,0.24,VWS V14.01,2013-11-19 03:15:00,
2013-11-18 22:21:00,47.1,29.4,29.85,WNW,298,2.0,5.0,50,0.00,,FEW080,0.24,VWS V14.01,2013-11-19 03:21:00,
2013-11-18 22:26:00,46.9,29.7,29.85,West,261,4.0,13.0,51,0.00,,FEW080,0.24,VWS V14.01,2013-11-19 03:26:00,
2013-11-18 22:31:00,46.8,29.6,29.85,NW,316,6.0,18.0,51,0.00,,FEW080,0.24,VWS V14.01,2013-11-19 03:31:00,
2013-11-18 22:36:00,46.5,28.9,29.85,North,354,6.0,11.0,50,0.00,,FEW080,0.24,VWS V14.01,2013-11-19 03:36:00,
2013-11-18 22:41:00,46.3,28.7,29.85,West,281,7.0,14.0,50,0.00,,FEW080,0.24,VWS V14.01,2013-11-19 03:41:00,
2013-11-18 22:46:00,46.3,28.2,29.86,WNW,285,7.0,18.0,49,0.00,,FEW080,0.24,VWS V14.01,2013-11-19 03:46:00,
2013-11-18 22:51:00,46.2,28.1,29.86,West,271,10.0,13.0,49,0.00,,FEW080,0.24,VWS V14.01,2013-11-19 03:51:00,
2013-11-18 22:56:00,45.9,27.8,29.86,WNW,302,10.0,18.0,49,0.00,,FEW080,0.24,VWS V14.01,2013-11-19 03:56:00,
2013-11-18 23:01:00,45.8,27.7,29.86,West,280,11.0,14.0,49,0.00,,FEW080,0.24,VWS V14.01,2013-11-19 04:01:00,
2013-11-18 23:06:00,45.9,27.8,29.86,WNW,295,1.0,12.0,49,0.00,,CLR,0.24,VWS V14.01,2013-11-19 04:06:00,
2013-11-18 23:08:00,45.8,27.7,29.86,West,278,12.0,13.0,49,0.00,,CLR,0.24,VWS V14.01,2013-11-19 04:08:00,
2013-11-18 23:13:00,45.7,27.6,29.86,WNW,294,9.0,13.0,49,0.00,,CLR,0.24,VWS V14.01,2013-11-19 04:13:00,
2013-11-18 23:18:00,45.6,27.6,29.86,WNW,301,9.0,17.0,49,0.00,,CLR,0.24,VWS V14.01,2013-11-19 04:18:00,
2013-11-18 23:23:00,45.6,27.6,29.86,WNW,285,13.0,20.0,49,0.00,,CLR,0.24,VWS V14.01,2013-11-19 04:23:00,
2013-11-18 23:28:00,45.7,27.6,29.86,WNW,300,8.0,22.0,49,0.00,,CLR,0.24,VWS V14.01,2013-11-19 04:28:00,
2013-11-18 23:33:00,45.6,28.0,29.87,WNW,302,9.0,13.0,50,0.00,,CLR,0.24,VWS V14.01,2013-11-19 04:33:00,
2013-11-18 23:38:00,45.6,28.0,29.87,WNW,295,8.0,16.0,50,0.00,,CLR,0.24,VWS V14.01,2013-11-19 04:38:00,
2013-11-18 23:43:00,45.6,28.0,29.87,WNW,284,7.0,17.0,50,0.00,,CLR,0.24,VWS V14.01,2013-11-19 04:43:00,
2013-11-18 23:49:00,45.4,28.4,29.87,WNW,298,14.0,15.0,51,0.00,,CLR,0.24,VWS V14.01,2013-11-19 04:49:00,
2013-11-18 23:54:00,45.3,28.7,29.87,West,267,2.0,15.0,52,0.00,,CLR,0.24,VWS V14.01,2013-11-19 04:54:00,
2013-11-18 23:59:00,45.2,28.6,29.87,WNW,283,7.0,14.0,52,0.00,,CLR,0.24,VWS V14.01,2013-11-19 04:59:00,